Portada
METAR-TAF:

METAR-TAF

Aeropuertos :

Isla de Margarita, Venezuela

Aeropuerto Internacional del Caribe Santiago Mariño

latitud: 10-55N, longitud: 063-59W, altitud: 23 m

METAR: falta

Hora: 22:01 (02:01 UTC)

Pronóstico

El informe se hizo hace 4 horas y 1 minutos, a las 22:00 UTC
Pronóstico válido del 28 a las 00 UTC al 29 a las 00 UTC
Viento 12 kt del este
Visibilidad 10 km o más
Escasas nubes a una altura de 1600 ft
Evolucionando progresivamente
del 28 a las 00 UTC al 28 a las 04 UTC
Viento 5 kt del este-noreste
Escasas nubes a una altura de 1600 ft
Nubes dispersas a una altura de 10000 ft

TAF: SVMG 272200Z 2800/2900 09012KT 9999 FEW016 TX34/18Z TN25/08Z BECMG 2800/2804 07005KT FEW016 SCT100

Observaciones y pronósticos meteorológicos de más de 4000 aeropuertos (mensajes METAR y TAF).

Los puntos amarillos y rojos representan las estaciones disponibles.

Ponga el ratón en el punto deseado para ver el nombre de la estación.

Haga clic para ver las observaciones y los pronósticos meteorológicos.

Para cambiar el mapa : haga clic en los botones verdes con una cruz de color negro para hacer un zoom, en el botón verde con un guión para alejar o en las flechas verdes para mapas adyacentes.


METAR-TAF: